Time;durP1;ratioP1;P1;durP2;ratioP2;P2;SDS_P1;SDS_P2;PMS_P1;PMS_P2;Temp;Humidity;BMP_temperature;BMP_pressure;BME280_temperature;BME280_humidity;BME280_pressure;Samples;Min_cycle;Max_cycle;Signal;HPM_P1;HPM_P2
2021/05/11 00:00:19;;;;;;;0.90;0.40;;;;;;;;;;5113716;27;20063;-70
2021/05/11 00:02:45;;;;;;;0.80;0.50;;;;;;;;;;5130384;27;20043;-70
2021/05/11 00:05:11;;;;;;;1.17;0.50;;;;;;;;;;5134597;27;20607;-69
2021/05/11 00:07:38;;;;;;;1.88;0.60;;;;;;;;;;5126796;27;20043;-69
2021/05/11 00:10:05;;;;;;;1.75;0.57;;;;;;;;;;5134717;27;20047;-69
2021/05/11 00:12:31;;;;;;;0.82;0.60;;;;;;;;;;5133181;27;20043;-69
2021/05/11 00:14:57;;;;;;;1.50;0.70;;;;;;;;;;5124166;27;20128;-69
2021/05/11 00:17:23;;;;;;;2.00;0.70;;;;;;;;;;5119531;27;20039;-68
2021/05/11 00:19:49;;;;;;;2.03;0.70;;;;;;;;;;5116300;27;20059;-69
2021/05/11 00:22:14;;;;;;;0.52;0.40;;;;;;;;;;5124091;27;20145;-68
2021/05/11 00:24:41;;;;;;;2.20;0.55;;;;;;;;;;5129707;27;20055;-69
2021/05/11 00:27:07;;;;;;;2.95;0.70;;;;;;;;;;5133937;27;20047;-69
2021/05/11 00:29:33;;;;;;;0.70;0.60;;;;;;;;;;5132192;27;20628;-69
2021/05/11 00:31:59;;;;;;;0.63;0.50;;;;;;;;;;5132936;27;20416;-69
2021/05/11 00:34:25;;;;;;;1.05;0.60;;;;;;;;;;5133519;27;20047;-69
2021/05/11 00:36:51;;;;;;;0.50;0.47;;;;;;;;;;5132843;27;20070;-69
2021/05/11 00:39:17;;;;;;;2.17;0.60;;;;;;;;;;5133671;27;20051;-69
2021/05/11 00:41:44;;;;;;;0.73;0.52;;;;;;;;;;5132802;27;20077;-70
2021/05/11 00:44:19;;;;;;;1.40;0.22;;;;;;;;;;5119389;27;20055;-69
2021/05/11 00:46:53;;;;;;;1.25;0.70;;;;;;;;;;5128050;27;20047;-69
2021/05/11 00:49:19;;;;;;;0.60;0.50;;;;;;;;;;5127337;27;20452;-69
2021/05/11 00:51:45;;;;;;;1.75;0.40;;;;;;;;;;5129251;27;20043;-69
2021/05/11 00:54:11;;;;;;;0.95;0.80;;;;;;;;;;5130444;27;20047;-69
2021/05/11 00:56:38;;;;;;;0.40;0.32;;;;;;;;;;5133075;27;20039;-69
2021/05/11 00:59:09;;;;;;;1.92;0.40;;;;;;;;;;5120325;27;20130;-69
2021/05/11 01:01:35;;;;;;;1.30;0.47;;;;;;;;;;5122317;27;20122;-69
2021/05/11 01:04:01;;;;;;;1.13;0.50;;;;;;;;;;5119181;28;20496;-69
2021/05/11 01:06:27;;;;;;;0.80;0.40;;;;;;;;;;5113161;28;20039;-70
2021/05/11 01:08:53;;;;;;;1.00;0.60;;;;;;;;;;5121794;27;20113;-69
2021/05/11 01:11:19;;;;;;;1.20;0.52;;;;;;;;;;5125652;27;20043;-69
2021/05/11 01:13:45;;;;;;;0.80;0.60;;;;;;;;;;5130466;27;20142;-69
2021/05/11 01:16:12;;;;;;;0.82;0.40;;;;;;;;;;5128055;27;20051;-69
2021/05/11 01:18:38;;;;;;;1.02;0.47;;;;;;;;;;5127877;28;20035;-69
2021/05/11 01:21:19;;;;;;;2.25;0.40;;;;;;;;;;5120293;28;20082;-70
2021/05/11 01:23:59;;;;;;;0.43;0.38;;;;;;;;;;5123774;28;20040;-69
2021/05/11 01:26:28;;;;;;;0.95;0.52;;;;;;;;;;5132448;28;20130;-70
2021/05/11 01:29:03;;;;;;;0.98;0.73;;;;;;;;;;5131922;28;20043;-70
2021/05/11 01:48:18;;;;;;;0.80;0.60;;;;;;;;;;5068434;28;20086;-69
2021/05/11 01:50:48;;;;;;;0.47;0.40;;;;;;;;;;5102079;28;20100;-69
2021/05/11 01:56:14;;;;;;;0.85;0.52;;;;;;;;;;5132138;28;20395;-70
2021/05/11 01:58:59;;;;;;;1.15;0.50;;;;;;;;;;5123491;27;20044;-70
2021/05/11 02:18:17;;;;;;;1.40;0.60;;;;;;;;;;5126613;27;20578;-70
2021/05/11 02:23:28;;;;;;;0.80;0.60;;;;;;;;;;5129038;27;20076;-70
2021/05/11 02:25:55;;;;;;;1.65;0.68;;;;;;;;;;5136574;27;20138;-70
2021/05/11 02:28:23;;;;;;;0.60;0.50;;;;;;;;;;5129071;27;20122;-70
2021/05/11 02:30:49;;;;;;;0.75;0.60;;;;;;;;;;5117767;27;20391;-70
2021/05/11 02:33:15;;;;;;;1.55;0.60;;;;;;;;;;5135003;27;20049;-70
2021/05/11 02:35:41;;;;;;;0.90;0.70;;;;;;;;;;5122553;27;20097;-69
2021/05/11 02:38:07;;;;;;;2.70;0.63;;;;;;;;;;5129196;27;20055;-70
2021/05/11 02:40:33;;;;;;;1.10;0.60;;;;;;;;;;5136198;27;20086;-70
2021/05/11 02:43:02;;;;;;;1.60;0.75;;;;;;;;;;5135116;27;20495;-69
2021/05/11 02:45:30;;;;;;;1.10;0.70;;;;;;;;;;5135698;27;20050;-71
2021/05/11 02:47:56;;;;;;;0.75;0.45;;;;;;;;;;5130196;27;20051;-70
2021/05/11 02:50:24;;;;;;;0.90;0.50;;;;;;;;;;5118228;27;20093;-70
2021/05/11 02:52:50;;;;;;;1.25;0.60;;;;;;;;;;5130282;27;20052;-70
2021/05/11 02:55:17;;;;;;;1.30;0.60;;;;;;;;;;5134426;27;20057;-70
2021/05/11 02:57:43;;;;;;;0.55;0.32;;;;;;;;;;5133541;27;20051;-71
2021/05/11 03:00:13;;;;;;;0.93;0.68;;;;;;;;;;5115317;27;20047;-70
2021/05/11 03:02:39;;;;;;;2.17;0.68;;;;;;;;;;5131275;27;20112;-70
2021/05/11 03:05:07;;;;;;;0.95;0.60;;;;;;;;;;5124375;27;20054;-70
2021/05/11 03:07:33;;;;;;;2.33;0.82;;;;;;;;;;5135632;27;20039;-70
2021/05/11 03:09:59;;;;;;;1.10;0.50;;;;;;;;;;5135186;27;20172;-70
2021/05/11 03:12:25;;;;;;;1.17;0.63;;;;;;;;;;5134156;27;20047;-70
2021/05/11 03:14:51;;;;;;;1.35;0.80;;;;;;;;;;5114974;28;20502;-70
2021/05/11 03:17:17;;;;;;;2.00;0.88;;;;;;;;;;5130208;27;20050;-70
2021/05/11 03:19:44;;;;;;;2.80;0.85;;;;;;;;;;5122837;27;20048;-70
2021/05/11 03:22:10;;;;;;;2.45;1.00;;;;;;;;;;5127520;27;20058;-70
2021/05/11 03:24:37;;;;;;;3.47;1.10;;;;;;;;;;5134993;27;20475;-70
2021/05/11 03:27:04;;;;;;;2.42;0.90;;;;;;;;;;5134519;27;20074;-70
2021/05/11 03:29:30;;;;;;;1.52;0.80;;;;;;;;;;5120048;27;20070;-70
2021/05/11 03:31:56;;;;;;;1.48;0.80;;;;;;;;;;5133704;27;20479;-70
2021/05/11 03:34:22;;;;;;;2.00;0.80;;;;;;;;;;5119110;27;20047;-70
2021/05/11 03:36:49;;;;;;;2.15;1.05;;;;;;;;;;5116576;27;20044;-70
2021/05/11 03:39:15;;;;;;;1.35;0.95;;;;;;;;;;5134844;27;20044;-70
2021/05/11 03:41:44;;;;;;;1.80;0.60;;;;;;;;;;5134053;27;20123;-70
2021/05/11 03:44:12;;;;;;;1.83;0.73;;;;;;;;;;5120894;27;20096;-70
2021/05/11 03:46:38;;;;;;;2.28;0.77;;;;;;;;;;5129720;27;20055;-70
2021/05/11 03:49:06;;;;;;;1.65;0.80;;;;;;;;;;5123770;27;20052;-70
2021/05/11 03:51:32;;;;;;;3.13;0.90;;;;;;;;;;5133535;27;20058;-70
2021/05/11 03:53:59;;;;;;;2.63;0.80;;;;;;;;;;5122562;27;20066;-70
2021/05/11 03:56:25;;;;;;;2.97;0.93;;;;;;;;;;5122421;27;20479;-70
2021/05/11 03:58:51;;;;;;;1.05;0.60;;;;;;;;;;5133752;27;20699;-71
2021/05/11 04:01:17;;;;;;;2.47;0.98;;;;;;;;;;5133442;27;20056;-70
2021/05/11 04:03:43;;;;;;;6.63;1.15;;;;;;;;;;5132424;27;20043;-70
2021/05/11 04:06:09;;;;;;;1.63;0.65;;;;;;;;;;5132750;27;20070;-70
2021/05/11 04:08:43;;;;;;;2.72;0.77;;;;;;;;;;5131881;27;20066;-70
2021/05/11 04:11:27;;;;;;;3.20;1.02;;;;;;;;;;5132081;27;20045;-70
2021/05/11 04:16:33;;;;;;;5.80;1.67;;;;;;;;;;5129809;27;20120;-71
2021/05/11 04:18:59;;;;;;;2.15;0.70;;;;;;;;;;5127747;27;20074;-71
2021/05/11 04:21:25;;;;;;;2.03;0.88;;;;;;;;;;5122036;27;20130;-71
2021/05/11 04:23:52;;;;;;;1.45;0.70;;;;;;;;;;5130848;27;20047;-71
2021/05/11 04:26:20;;;;;;;1.70;0.70;;;;;;;;;;5133626;27;20083;-71
2021/05/11 04:28:47;;;;;;;1.40;0.70;;;;;;;;;;5131656;27;20043;-71
2021/05/11 04:31:14;;;;;;;1.98;0.90;;;;;;;;;;5132926;27;20430;-71
2021/05/11 04:33:40;;;;;;;2.17;0.77;;;;;;;;;;5123907;27;20044;-71
2021/05/11 04:36:06;;;;;;;1.48;0.80;;;;;;;;;;5113181;28;20506;-71
2021/05/11 04:38:32;;;;;;;4.95;1.00;;;;;;;;;;5121502;27;20086;-71
2021/05/11 04:40:58;;;;;;;1.00;0.60;;;;;;;;;;5122051;27;20050;-71
2021/05/11 04:43:27;;;;;;;1.17;0.75;;;;;;;;;;5132428;27;20372;-71
2021/05/11 04:46:04;;;;;;;1.70;0.80;;;;;;;;;;5133202;27;20046;-71
2021/05/11 04:48:30;;;;;;;1.73;0.80;;;;;;;;;;5124840;27;20040;-71
2021/05/11 04:50:57;;;;;;;3.03;1.05;;;;;;;;;;5128861;27;20049;-71
2021/05/11 04:53:23;;;;;;;2.08;1.08;;;;;;;;;;5128941;27;20058;-71
2021/05/11 04:55:49;;;;;;;2.55;1.40;;;;;;;;;;5112790;28;20059;-69
2021/05/11 04:58:15;;;;;;;1.40;0.80;;;;;;;;;;5112489;28;20047;-70
2021/05/11 05:00:41;;;;;;;2.20;0.80;;;;;;;;;;5112303;28;20047;-70
2021/05/11 05:03:11;;;;;;;3.45;0.95;;;;;;;;;;5125247;27;20048;-71
2021/05/11 05:05:37;;;;;;;2.63;1.00;;;;;;;;;;5112743;28;20052;-73
2021/05/11 05:08:03;;;;;;;3.30;1.10;;;;;;;;;;5121695;27;20082;-73
2021/05/11 05:10:28;;;;;;;2.55;1.00;;;;;;;;;;5127011;27;20046;-73
2021/05/11 05:12:54;;;;;;;2.65;1.63;;;;;;;;;;5131281;27;20051;-73
2021/05/11 05:15:20;;;;;;;1.55;0.93;;;;;;;;;;5132291;27;20054;-71
2021/05/11 05:17:47;;;;;;;3.60;1.17;;;;;;;;;;5130144;27;20188;-71
2021/05/11 05:20:13;;;;;;;6.65;1.48;;;;;;;;;;5121706;28;20051;-71
2021/05/11 05:22:41;;;;;;;2.47;1.10;;;;;;;;;;5127888;28;20135;-72
2021/05/11 05:25:12;;;;;;;2.72;1.33;;;;;;;;;;5123992;28;20054;-73
2021/05/11 05:27:40;;;;;;;2.65;1.30;;;;;;;;;;5133863;28;20099;-70
2021/05/11 05:30:07;;;;;;;2.55;1.02;;;;;;;;;;5133068;28;20126;-71
2021/05/11 05:32:33;;;;;;;3.03;1.30;;;;;;;;;;5131891;27;20495;-71
2021/05/11 05:35:00;;;;;;;1.13;0.90;;;;;;;;;;5121901;27;20391;-70
2021/05/11 05:37:26;;;;;;;1.65;1.08;;;;;;;;;;5136984;27;20051;-70
2021/05/11 05:39:55;;;;;;;1.75;1.05;;;;;;;;;;5116955;27;20052;-70
2021/05/11 05:42:21;;;;;;;2.67;1.23;;;;;;;;;;5134035;27;20130;-70
2021/05/11 05:44:47;;;;;;;2.10;1.30;;;;;;;;;;5122033;27;20043;-70
2021/05/11 05:47:13;;;;;;;2.58;1.02;;;;;;;;;;5136672;27;20092;-70
2021/05/11 05:49:42;;;;;;;3.58;1.30;;;;;;;;;;5118181;27;20056;-70
2021/05/11 05:52:15;;;;;;;2.10;1.30;;;;;;;;;;5133481;27;20495;-71
2021/05/11 05:54:41;;;;;;;3.00;1.38;;;;;;;;;;5133819;27;20083;-71
2021/05/11 05:57:07;;;;;;;1.45;0.93;;;;;;;;;;5116216;28;20497;-70
2021/05/11 05:59:34;;;;;;;2.35;1.13;;;;;;;;;;5125861;27;20107;-70
2021/05/11 06:02:00;;;;;;;2.17;1.10;;;;;;;;;;5136208;27;20053;-70
2021/05/11 06:04:26;;;;;;;5.93;1.58;;;;;;;;;;5133965;27;20475;-70
2021/05/11 06:06:52;;;;;;;3.15;1.17;;;;;;;;;;5135405;27;20045;-70
2021/05/11 06:09:21;;;;;;;2.95;1.30;;;;;;;;;;5136662;27;20047;-70
2021/05/11 06:11:51;;;;;;;3.72;0.95;;;;;;;;;;5135310;27;20156;-70
2021/05/11 06:14:25;;;;;;;1.92;1.27;;;;;;;;;;5144533;27;20047;-71
2021/05/11 06:17:13;;;;;;;2.25;1.20;;;;;;;;;;5136126;27;20138;-71
2021/05/11 06:19:40;;;;;;;4.40;1.77;;;;;;;;;;5121288;27;20085;-70
2021/05/11 06:22:06;;;;;;;4.05;1.55;;;;;;;;;;5133247;27;20051;-70
2021/05/11 06:24:32;;;;;;;2.95;1.35;;;;;;;;;;5124441;27;20454;-70
2021/05/11 06:26:58;;;;;;;2.30;1.30;;;;;;;;;;5120324;27;20047;-71
2021/05/11 06:29:26;;;;;;;2.45;1.42;;;;;;;;;;5135441;27;20039;-72
2021/05/11 06:31:52;;;;;;;1.52;1.08;;;;;;;;;;5135337;27;20054;-71
2021/05/11 06:34:18;;;;;;;2.00;1.27;;;;;;;;;;5126016;27;20039;-71
2021/05/11 06:36:44;;;;;;;3.47;1.58;;;;;;;;;;5135886;27;20055;-70
2021/05/11 06:39:12;;;;;;;4.95;1.27;;;;;;;;;;5123009;27;20086;-71
2021/05/11 06:41:40;;;;;;;2.25;1.40;;;;;;;;;;5123866;27;20046;-71
2021/05/11 06:44:09;;;;;;;1.90;1.00;;;;;;;;;;5135726;27;20097;-72
2021/05/11 06:47:09;;;;;;;2.67;1.52;;;;;;;;;;5135844;27;20112;-71
2021/05/11 06:49:42;;;;;;;1.88;1.10;;;;;;;;;;5124742;27;20048;-71
2021/05/11 06:54:52;;;;;;;1.58;1.00;;;;;;;;;;5122944;27;20066;-71
2021/05/11 06:57:19;;;;;;;2.08;1.20;;;;;;;;;;5116121;27;20134;-70
2021/05/11 06:59:45;;;;;;;1.55;0.90;;;;;;;;;;5115419;28;20326;-71
2021/05/11 07:02:11;;;;;;;1.88;1.17;;;;;;;;;;5127106;27;20057;-70
2021/05/11 07:04:38;;;;;;;1.55;1.00;;;;;;;;;;5134313;27;20043;-70
2021/05/11 07:07:08;;;;;;;1.77;1.20;;;;;;;;;;5136133;27;20051;-72
2021/05/11 07:09:38;;;;;;;3.63;1.35;;;;;;;;;;5121917;27;20444;-72
2021/05/11 07:14:50;;;;;;;2.30;0.80;;;;;;;;;;5130967;27;20104;-71
2021/05/11 07:17:16;;;;;;;3.40;1.30;;;;;;;;;;5134094;27;20130;-71
2021/05/11 07:19:41;;;;;;;1.27;0.85;;;;;;;;;;5131306;27;20552;-71
2021/05/11 07:22:07;;;;;;;3.88;1.10;;;;;;;;;;5128953;27;20130;-72
2021/05/11 07:24:33;;;;;;;1.30;0.90;;;;;;;;;;5132967;27;20055;-71
2021/05/11 07:27:29;;;;;;;2.70;1.10;;;;;;;;;;5134311;27;20360;-71
2021/05/11 07:29:57;;;;;;;2.22;1.45;;;;;;;;;;5132198;27;20552;-71
2021/05/11 07:32:24;;;;;;;3.08;1.13;;;;;;;;;;5133173;27;20066;-71
2021/05/11 07:34:51;;;;;;;2.88;1.10;;;;;;;;;;5132531;27;20050;-71
2021/05/11 07:37:17;;;;;;;2.63;1.48;;;;;;;;;;5130799;27;20035;-71
2021/05/11 07:39:45;;;;;;;2.40;1.40;;;;;;;;;;5131015;27;20526;-71
2021/05/11 07:42:12;;;;;;;2.75;1.10;;;;;;;;;;5132341;27;20079;-71
2021/05/11 07:44:42;;;;;;;1.23;0.95;;;;;;;;;;5130591;27;20050;-72
2021/05/11 07:47:12;;;;;;;2.53;1.10;;;;;;;;;;5133336;27;20054;-72
2021/05/11 08:14:39;;;;;;;3.63;1.40;;;;;;;;;;5128579;27;20337;-72
2021/05/11 08:17:06;;;;;;;3.17;1.42;;;;;;;;;;5134015;27;20050;-69
2021/05/11 08:22:41;;;;;;;6.55;2.00;;;;;;;;;;5087430;27;20416;-71
2021/05/11 08:27:55;;;;;;;4.00;1.80;;;;;;;;;;5131836;27;20435;-71
2021/05/11 08:30:22;;;;;;;3.88;1.80;;;;;;;;;;5131358;27;20398;-71
2021/05/11 08:32:48;;;;;;;3.72;2.05;;;;;;;;;;5129258;27;20047;-71
2021/05/11 08:35:15;;;;;;;5.90;2.80;;;;;;;;;;5130748;27;20043;-70
2021/05/11 08:37:41;;;;;;;5.43;2.90;;;;;;;;;;5131924;27;20055;-70
2021/05/11 08:40:08;;;;;;;6.80;3.33;;;;;;;;;;5132740;27;20047;-70
2021/05/11 08:42:34;;;;;;;8.52;2.97;;;;;;;;;;5132163;27;20051;-71
2021/05/11 08:45:03;;;;;;;5.22;3.03;;;;;;;;;;5134016;27;20467;-71
2021/05/11 08:47:30;;;;;;;7.43;3.13;;;;;;;;;;5132750;27;20043;-70
2021/05/11 08:49:57;;;;;;;6.13;3.47;;;;;;;;;;5132233;27;20047;-70
2021/05/11 08:52:26;;;;;;;6.22;2.92;;;;;;;;;;5131230;27;20124;-70
2021/05/11 08:55:07;;;;;;;6.47;3.05;;;;;;;;;;5123467;27;20046;-71
2021/05/11 09:25:48;;;;;;;5.28;2.50;;;;;;;;;;5127457;28;20116;-71
2021/05/11 09:28:24;;;;;;;3.85;2.70;;;;;;;;;;5132168;28;20399;-71
2021/05/11 09:30:58;;;;;;;3.30;2.38;;;;;;;;;;5122756;28;20108;-72
2021/05/11 09:33:29;;;;;;;3.25;2.25;;;;;;;;;;5123409;28;20718;-71
2021/05/11 09:58:37;;;;;;;3.15;2.42;;;;;;;;;;5118432;28;20043;-72
2021/05/11 10:44:10;;;;;;;4.22;2.85;;;;;;;;;;5134503;27;20082;-73
2021/05/11 10:46:55;;;;;;;3.97;2.70;;;;;;;;;;5136021;27;20047;-73
2021/05/11 10:49:24;;;;;;;4.35;2.80;;;;;;;;;;5136396;27;20078;-72
2021/05/11 10:52:04;;;;;;;3.83;2.95;;;;;;;;;;5134179;27;20088;-72
2021/05/11 10:54:34;;;;;;;4.25;2.90;;;;;;;;;;5155182;27;20150;-71
2021/05/11 10:57:06;;;;;;;4.25;2.75;;;;;;;;;;5143925;27;20051;-73
2021/05/11 10:59:47;;;;;;;3.58;2.78;;;;;;;;;;5135707;27;20046;-71
2021/05/11 11:02:26;;;;;;;4.97;3.25;;;;;;;;;;5135409;27;20049;-72
2021/05/11 11:04:52;;;;;;;3.88;2.83;;;;;;;;;;5136093;27;20055;-72
2021/05/11 11:07:31;;;;;;;4.45;2.70;;;;;;;;;;5135369;27;20077;-73
2021/05/11 11:09:59;;;;;;;5.60;2.70;;;;;;;;;;5135641;27;20050;-71
2021/05/11 11:12:34;;;;;;;3.20;2.60;;;;;;;;;;5135160;27;20064;-71
2021/05/11 11:15:05;;;;;;;3.92;2.92;;;;;;;;;;5144407;27;20062;-72
2021/05/11 11:17:40;;;;;;;4.20;2.78;;;;;;;;;;5135640;27;20059;-72
2021/05/11 11:20:11;;;;;;;4.38;3.33;;;;;;;;;;5133556;27;20498;-72
2021/05/11 11:25:21;;;;;;;3.70;3.00;;;;;;;;;;5130876;27;20054;-73
2021/05/11 11:27:47;;;;;;;4.38;3.33;;;;;;;;;;5124297;27;20065;-73
2021/05/11 11:30:15;;;;;;;4.35;3.03;;;;;;;;;;5133795;27;20408;-73
2021/05/11 11:32:41;;;;;;;6.57;2.80;;;;;;;;;;5134571;27;20058;-72
2021/05/11 11:35:10;;;;;;;4.70;3.20;;;;;;;;;;5115751;27;20130;-72
2021/05/11 11:37:39;;;;;;;4.85;3.80;;;;;;;;;;5114321;28;20051;-72
2021/05/11 11:40:06;;;;;;;4.25;3.17;;;;;;;;;;5114967;27;20048;-72
2021/05/11 11:42:36;;;;;;;4.22;3.25;;;;;;;;;;5130031;27;20469;-72
2021/05/11 11:45:04;;;;;;;3.85;3.03;;;;;;;;;;5134216;27;20058;-74
2021/05/11 11:47:31;;;;;;;4.75;2.90;;;;;;;;;;5134069;27;20045;-74
2021/05/11 11:50:00;;;;;;;4.53;3.15;;;;;;;;;;5135073;27;20111;-74
2021/05/11 11:52:29;;;;;;;5.10;3.80;;;;;;;;;;5134639;27;20055;-73
2021/05/11 11:55:12;;;;;;;5.00;4.00;;;;;;;;;;5135009;27;20081;-72
2021/05/11 11:57:45;;;;;;;5.03;3.80;;;;;;;;;;5134531;27;20047;-73
2021/05/11 12:00:13;;;;;;;4.88;3.38;;;;;;;;;;5134433;27;20039;-74
2021/05/11 12:02:51;;;;;;;6.90;4.20;;;;;;;;;;5134240;27;20071;-74
2021/05/11 12:05:17;;;;;;;4.72;3.50;;;;;;;;;;5135168;27;20050;-75
2021/05/11 12:07:57;;;;;;;5.63;4.47;;;;;;;;;;5134906;27;20043;-72
2021/05/11 12:10:23;;;;;;;6.47;3.88;;;;;;;;;;5134096;27;20089;-73
2021/05/11 12:12:49;;;;;;;5.70;4.32;;;;;;;;;;5133793;27;20062;-74
2021/05/11 12:15:19;;;;;;;6.40;4.38;;;;;;;;;;5134540;27;20047;-73
2021/05/11 12:17:47;;;;;;;6.00;4.18;;;;;;;;;;5135410;27;20047;-73
2021/05/11 12:20:25;;;;;;;7.03;4.47;;;;;;;;;;5134622;27;20047;-74
2021/05/11 12:23:14;;;;;;;5.03;3.80;;;;;;;;;;5133666;27;20065;-76
2021/05/11 12:25:41;;;;;;;5.80;3.97;;;;;;;;;;5134575;27;20522;-73
2021/05/11 12:28:07;;;;;;;4.47;3.95;;;;;;;;;;5132766;27;20077;-73
2021/05/11 12:30:39;;;;;;;7.50;4.45;;;;;;;;;;5125523;27;20124;-73
2021/05/11 12:33:07;;;;;;;4.95;4.45;;;;;;;;;;5132513;27;20057;-73
2021/05/11 12:35:33;;;;;;;5.97;4.70;;;;;;;;;;5115351;27;20096;-73
2021/05/11 12:38:02;;;;;;;6.28;4.10;;;;;;;;;;5113451;28;20471;-75
2021/05/11 12:40:45;;;;;;;5.47;4.63;;;;;;;;;;5113987;28;20079;-73
2021/05/11 12:43:11;;;;;;;5.50;4.97;;;;;;;;;;5132180;27;20043;-73
2021/05/11 12:45:50;;;;;;;5.70;4.55;;;;;;;;;;5133677;27;20053;-73
2021/05/11 12:48:16;;;;;;;6.90;5.93;;;;;;;;;;5131475;27;20043;-73
2021/05/11 12:50:43;;;;;;;7.05;5.40;;;;;;;;;;5130670;27;20046;-73
2021/05/11 12:53:33;;;;;;;8.85;5.65;;;;;;;;;;5130355;27;20039;-74
2021/05/11 12:56:14;;;;;;;6.82;6.05;;;;;;;;;;5130611;27;20054;-73
2021/05/11 12:58:58;;;;;;;5.78;4.90;;;;;;;;;;5129835;27;20047;-73
2021/05/11 13:01:25;;;;;;;7.95;5.35;;;;;;;;;;5129963;27;20046;-73
2021/05/11 13:04:14;;;;;;;7.78;5.90;;;;;;;;;;5132013;27;20109;-73
2021/05/11 13:09:37;;;;;;;6.55;5.43;;;;;;;;;;5133641;27;20104;-73
2021/05/11 13:20:35;;;;;;;7.47;5.38;;;;;;;;;;5100504;28;20456;-73
2021/05/11 13:23:07;;;;;;;7.32;5.50;;;;;;;;;;5132677;28;20043;-72
2021/05/11 13:25:35;;;;;;;6.57;5.15;;;;;;;;;;5133190;28;20525;-70
2021/05/11 13:28:09;;;;;;;5.65;5.03;;;;;;;;;;5131331;28;20053;-74
2021/05/11 13:30:41;;;;;;;6.80;5.07;;;;;;;;;;5117222;28;20066;-73
2021/05/11 13:33:16;;;;;;;8.45;5.82;;;;;;;;;;5131458;28;20607;-71
2021/05/11 13:35:42;;;;;;;6.40;5.13;;;;;;;;;;5133506;28;20051;-72
2021/05/11 13:38:08;;;;;;;6.68;4.75;;;;;;;;;;5133796;28;20073;-74
2021/05/11 13:40:35;;;;;;;5.68;4.70;;;;;;;;;;5133685;28;20086;-73
2021/05/11 13:43:01;;;;;;;6.15;5.20;;;;;;;;;;5133032;28;20092;-72
2021/05/11 13:45:28;;;;;;;6.15;5.15;;;;;;;;;;5129111;28;20052;-72
2021/05/11 13:48:02;;;;;;;6.70;5.18;;;;;;;;;;5113165;28;20477;-72
2021/05/11 13:50:48;;;;;;;6.47;5.53;;;;;;;;;;5112961;28;20083;-72
2021/05/11 13:53:14;;;;;;;7.03;5.15;;;;;;;;;;5133457;28;20047;-72
2021/05/11 13:55:49;;;;;;;7.05;6.05;;;;;;;;;;5135552;27;20047;-72
2021/05/11 14:03:44;;;;;;;11.70;5.45;;;;;;;;;;5133122;27;20555;-73
2021/05/11 14:06:11;;;;;;;9.40;6.70;;;;;;;;;;5135977;27;20467;-73
2021/05/11 14:08:37;;;;;;;9.85;6.50;;;;;;;;;;5135975;27;20126;-73
2021/05/11 14:11:03;;;;;;;7.05;5.75;;;;;;;;;;5135377;27;20066;-73
2021/05/11 14:13:30;;;;;;;11.80;6.70;;;;;;;;;;5136035;27;20035;-73
2021/05/11 14:15:56;;;;;;;9.55;7.82;;;;;;;;;;5135304;27;20058;-73
2021/05/11 14:18:22;;;;;;;12.20;9.07;;;;;;;;;;5132600;27;20061;-73
2021/05/11 14:20:48;;;;;;;13.70;10.10;;;;;;;;;;5132491;27;20043;-72
2021/05/11 14:23:14;;;;;;;10.85;9.55;;;;;;;;;;5134378;27;20046;-72
2021/05/11 14:25:41;;;;;;;11.57;9.32;;;;;;;;;;5134306;27;20047;-71
2021/05/11 14:28:07;;;;;;;11.18;9.88;;;;;;;;;;5133527;27;20043;-73
2021/05/11 14:30:34;;;;;;;13.50;10.85;;;;;;;;;;5133304;27;20121;-74
2021/05/11 14:33:00;;;;;;;12.07;10.18;;;;;;;;;;5134481;27;20066;-72
2021/05/11 14:35:26;;;;;;;13.77;10.80;;;;;;;;;;5135327;27;20502;-71
2021/05/11 14:37:53;;;;;;;14.68;11.63;;;;;;;;;;5134657;27;20051;-72
2021/05/11 14:40:19;;;;;;;11.95;9.88;;;;;;;;;;5134732;27;20039;-74
2021/05/11 14:42:45;;;;;;;15.05;11.65;;;;;;;;;;5134599;27;20043;-71
2021/05/11 14:45:12;;;;;;;15.73;10.80;;;;;;;;;;5133844;27;20095;-71
2021/05/11 14:47:45;;;;;;;12.20;9.80;;;;;;;;;;5134516;27;20043;-71
2021/05/11 14:50:11;;;;;;;12.05;10.18;;;;;;;;;;5135085;27;20043;-71
2021/05/11 14:52:37;;;;;;;11.68;9.93;;;;;;;;;;5133802;27;20045;-71
2021/05/11 14:55:04;;;;;;;13.05;10.55;;;;;;;;;;5134396;27;20479;-71
2021/05/11 14:57:30;;;;;;;11.23;10.02;;;;;;;;;;5135384;27;20423;-71
2021/05/11 14:59:56;;;;;;;12.18;9.57;;;;;;;;;;5132651;27;20475;-71
2021/05/11 15:02:22;;;;;;;12.07;10.52;;;;;;;;;;5133165;27;20086;-70
2021/05/11 15:04:49;;;;;;;12.55;10.32;;;;;;;;;;5134420;27;20494;-70
2021/05/11 15:07:15;;;;;;;13.95;11.15;;;;;;;;;;5134791;27;20051;-71
2021/05/11 15:09:42;;;;;;;10.80;9.15;;;;;;;;;;5135569;27;20043;-72
2021/05/11 15:12:08;;;;;;;12.32;9.80;;;;;;;;;;5134783;27;20051;-72
2021/05/11 15:14:34;;;;;;;11.90;10.35;;;;;;;;;;5133941;27;20039;-72
2021/05/11 15:17:57;;;;;;;10.15;8.98;;;;;;;;;;5134510;27;20047;-72
2021/05/11 15:19:55;;;;;;;13.48;10.15;;;;;;;;;;5134567;27;20449;-71
2021/05/11 15:22:22;;;;;;;13.50;9.98;;;;;;;;;;5133151;27;20043;-71
2021/05/11 15:24:49;;;;;;;13.70;10.82;;;;;;;;;;5133950;27;20388;-71
2021/05/11 15:27:16;;;;;;;15.23;11.32;;;;;;;;;;5134859;27;20489;-71
2021/05/11 15:29:42;;;;;;;12.25;10.30;;;;;;;;;;5130901;27;20047;-71
2021/05/11 15:32:36;;;;;;;14.20;11.75;;;;;;;;;;5133747;27;20062;-72
2021/05/11 15:35:03;;;;;;;11.90;10.38;;;;;;;;;;5143959;27;20079;-71
2021/05/11 15:37:29;;;;;;;11.88;9.88;;;;;;;;;;5119149;27;20174;-72
2021/05/11 15:39:55;;;;;;;12.15;9.85;;;;;;;;;;5132389;27;20444;-71
2021/05/11 15:42:21;;;;;;;13.02;10.98;;;;;;;;;;5132811;27;20071;-71
2021/05/11 15:44:47;;;;;;;12.98;10.88;;;;;;;;;;5133938;27;20039;-71
2021/05/11 15:47:13;;;;;;;11.82;10.27;;;;;;;;;;5133295;27;20043;-71
2021/05/11 15:49:42;;;;;;;12.13;9.85;;;;;;;;;;5133271;27;20050;-71
2021/05/11 15:52:09;;;;;;;14.70;11.60;;;;;;;;;;5131144;27;20510;-71
2021/05/11 15:54:35;;;;;;;13.70;11.40;;;;;;;;;;5130780;27;20384;-71
2021/05/11 15:57:01;;;;;;;13.55;11.32;;;;;;;;;;5131228;27;20043;-71
2021/05/11 15:59:27;;;;;;;12.95;11.13;;;;;;;;;;5133867;27;20133;-72
2021/05/11 16:01:53;;;;;;;13.02;10.98;;;;;;;;;;5134070;27;20047;-71
2021/05/11 16:04:19;;;;;;;11.98;10.50;;;;;;;;;;5133750;27;20131;-70
2021/05/11 16:06:45;;;;;;;12.25;10.50;;;;;;;;;;5133056;27;20043;-70
2021/05/11 16:09:12;;;;;;;13.63;10.52;;;;;;;;;;5134273;27;20047;-70
2021/05/11 16:11:38;;;;;;;11.95;9.93;;;;;;;;;;5131971;27;20475;-70
2021/05/11 16:14:04;;;;;;;13.60;10.85;;;;;;;;;;5132524;27;20139;-70
2021/05/11 16:16:31;;;;;;;14.23;10.10;;;;;;;;;;5131179;27;20133;-70
2021/05/11 16:18:57;;;;;;;11.07;8.43;;;;;;;;;;5132019;27;20054;-70
2021/05/11 16:21:24;;;;;;;15.02;11.07;;;;;;;;;;5131647;27;20043;-70
2021/05/11 16:23:51;;;;;;;12.13;9.48;;;;;;;;;;5126420;27;20050;-70
2021/05/11 16:26:18;;;;;;;13.05;9.95;;;;;;;;;;5130318;27;20039;-70
2021/05/11 16:28:44;;;;;;;12.45;10.02;;;;;;;;;;5130789;27;20089;-71
2021/05/11 16:31:10;;;;;;;11.05;9.27;;;;;;;;;;5128497;27;20100;-71
2021/05/11 16:33:36;;;;;;;11.35;9.43;;;;;;;;;;5131720;27;20399;-71
2021/05/11 16:36:03;;;;;;;11.20;8.40;;;;;;;;;;5132440;27;20046;-71
2021/05/11 16:38:29;;;;;;;11.27;8.88;;;;;;;;;;5133421;27;20051;-70
2021/05/11 16:40:56;;;;;;;11.98;9.38;;;;;;;;;;5124727;27;20039;-70
2021/05/11 16:43:23;;;;;;;11.35;9.27;;;;;;;;;;5132658;27;20104;-72
2021/05/11 16:45:50;;;;;;;10.20;9.02;;;;;;;;;;5131415;27;20093;-71
2021/05/11 16:48:16;;;;;;;10.73;8.77;;;;;;;;;;5154033;27;20510;-71
2021/05/11 16:50:42;;;;;;;9.57;7.90;;;;;;;;;;5145742;27;20047;-72
2021/05/11 16:53:13;;;;;;;11.52;8.10;;;;;;;;;;5132814;27;20051;-71
2021/05/11 16:55:39;;;;;;;10.02;8.57;;;;;;;;;;5134349;27;20043;-72
2021/05/11 16:58:05;;;;;;;12.35;9.23;;;;;;;;;;5131724;27;20134;-71
2021/05/11 17:00:33;;;;;;;11.77;9.65;;;;;;;;;;5132466;27;20046;-71
2021/05/11 17:03:00;;;;;;;11.23;10.05;;;;;;;;;;5130917;27;20070;-71
2021/05/11 17:05:26;;;;;;;11.82;10.52;;;;;;;;;;5130838;27;20449;-71
2021/05/11 17:07:54;;;;;;;11.98;9.55;;;;;;;;;;5134399;27;20051;-71
2021/05/11 17:10:20;;;;;;;11.27;10.07;;;;;;;;;;5130587;27;20050;-72
2021/05/11 17:12:48;;;;;;;12.55;9.27;;;;;;;;;;5131484;27;20407;-72
2021/05/11 17:15:15;;;;;;;11.75;10.35;;;;;;;;;;5130899;27;20130;-71
2021/05/11 17:17:42;;;;;;;15.07;12.68;;;;;;;;;;5131223;27;20043;-71
2021/05/11 17:20:09;;;;;;;11.40;10.18;;;;;;;;;;5132156;27;20084;-71
2021/05/11 17:22:35;;;;;;;13.60;11.45;;;;;;;;;;5132769;27;20042;-71
2021/05/11 17:25:01;;;;;;;14.20;11.27;;;;;;;;;;5130446;28;20043;-71
2021/05/11 17:27:29;;;;;;;11.98;10.18;;;;;;;;;;5128978;28;20043;-71
2021/05/11 17:29:55;;;;;;;11.80;10.38;;;;;;;;;;5135649;27;20073;-71
2021/05/11 17:32:22;;;;;;;13.43;10.02;;;;;;;;;;5134583;27;20064;-72
2021/05/11 17:34:48;;;;;;;12.48;9.23;;;;;;;;;;5122266;27;20045;-70
2021/05/11 17:37:14;;;;;;;12.07;10.50;;;;;;;;;;5131569;27;20165;-72
2021/05/11 17:39:40;;;;;;;13.55;10.00;;;;;;;;;;5127969;27;20050;-73
2021/05/11 17:42:08;;;;;;;12.43;10.05;;;;;;;;;;5136031;27;20515;-72
2021/05/11 17:44:34;;;;;;;12.07;10.48;;;;;;;;;;5137100;27;20092;-72
2021/05/11 17:47:01;;;;;;;14.10;11.45;;;;;;;;;;5137365;27;20196;-71
2021/05/11 17:49:28;;;;;;;11.77;8.77;;;;;;;;;;5136866;27;20047;-72
2021/05/11 17:51:55;;;;;;;19.33;12.00;;;;;;;;;;5136525;27;20047;-71
2021/05/11 17:54:21;;;;;;;11.65;9.50;;;;;;;;;;5136951;27;20066;-72
2021/05/11 17:56:47;;;;;;;13.75;11.18;;;;;;;;;;5137008;27;20104;-71